Time;durP1;ratioP1;P1;durP2;ratioP2;P2;SDS_P1;SDS_P2;PMS_P1;PMS_P2;Temp;Humidity;BMP_temperature;BMP_pressure;BME280_temperature;BME280_humidity;BME280_pressure;Samples;Min_cycle;Max_cycle;Signal;HPM_P1;HPM_P2
2021/12/10 00:01:21;;;;;;;130.38;78.15;;;1.10;99.90;;;;;;5062933;28;20383;-85
2021/12/10 00:03:51;;;;;;;135.40;79.38;;;1.00;99.90;;;;;;5068028;28;20467;-85
2021/12/10 00:06:26;;;;;;;125.72;75.43;;;1.10;99.90;;;;;;5066400;28;20848;-85
2021/12/10 00:08:59;;;;;;;126.07;77.20;;;1.00;99.90;;;;;;5066850;28;20459;-83
2021/12/10 00:12:20;;;;;;;121.22;73.05;;;1.00;99.90;;;;;;5066561;28;20386;-83
2021/12/10 00:14:47;;;;;;;128.27;76.37;;;1.10;99.90;;;;;;5054544;28;20383;-85
2021/12/10 00:17:15;;;;;;;133.05;77.72;;;1.10;99.90;;;;;;5049499;28;20463;-84
2021/12/10 00:19:47;;;;;;;129.40;77.00;;;1.10;99.90;;;;;;5064631;28;20397;-83
2021/12/10 00:22:15;;;;;;;132.37;79.13;;;1.20;99.90;;;;;;5063953;28;20417;-84
2021/12/10 00:24:43;;;;;;;130.98;78.20;;;1.20;99.90;;;;;;5049476;28;20411;-83
2021/12/10 00:27:10;;;;;;;136.77;80.15;;;1.10;99.90;;;;;;5069030;28;20432;-85
2021/12/10 00:29:41;;;;;;;137.75;80.07;;;1.10;99.90;;;;;;5055088;28;20371;-84
2021/12/10 00:32:29;;;;;;;133.48;77.72;;;1.00;99.90;;;;;;5053449;28;20399;-85
2021/12/10 00:34:56;;;;;;;127.35;75.93;;;1.00;99.90;;;;;;5052424;28;20371;-84
2021/12/10 00:37:22;;;;;;;137.23;80.05;;;1.10;99.90;;;;;;5052070;28;20399;-82
2021/12/10 00:39:56;;;;;;;128.65;77.53;;;1.10;99.90;;;;;;5065090;28;20920;-84
2021/12/10 00:42:30;;;;;;;139.27;79.75;;;1.20;99.90;;;;;;5050544;28;20461;-82
2021/12/10 00:44:57;;;;;;;136.10;79.25;;;1.20;99.90;;;;;;5059077;28;20410;-84
2021/12/10 00:47:24;;;;;;;137.02;80.63;;;1.10;99.90;;;;;;5049974;28;20391;-85
2021/12/10 00:49:51;;;;;;;124.72;76.10;;;1.20;99.90;;;;;;5052019;28;20445;-84
2021/12/10 00:52:17;;;;;;;141.43;82.70;;;1.10;99.90;;;;;;5051217;28;20407;-83
2021/12/10 00:54:43;;;;;;;138.27;80.93;;;1.10;99.90;;;;;;5070472;28;20413;-83
2021/12/10 00:57:10;;;;;;;144.40;83.28;;;1.20;99.90;;;;;;5069917;28;20434;-84
2021/12/10 00:59:36;;;;;;;141.75;83.38;;;1.20;99.90;;;;;;5055112;28;20384;-84
2021/12/10 01:02:06;;;;;;;140.98;80.97;;;1.10;99.90;;;;;;5066035;28;20404;-84
2021/12/10 01:04:36;;;;;;;141.98;81.03;;;1.10;99.90;;;;;;5049623;28;20756;-85
2021/12/10 01:07:06;;;;;;;136.52;81.00;;;1.00;99.90;;;;;;5051334;28;20761;-83
2021/12/10 01:09:35;;;;;;;141.50;83.00;;;1.10;99.90;;;;;;5066187;28;20465;-85
2021/12/10 01:12:09;;;;;;;149.98;85.70;;;1.10;99.90;;;;;;5069209;28;20824;-84
2021/12/10 01:14:56;;;;;;;143.90;82.70;;;1.10;99.90;;;;;;5061817;28;20969;-81
2021/12/10 01:25:55;;;;;;;145.27;85.45;;;0.90;99.90;;;;;;5071017;28;20412;-83
2021/12/10 01:28:22;;;;;;;136.52;80.28;;;0.90;99.90;;;;;;5068034;28;20406;-83
2021/12/10 01:30:48;;;;;;;137.43;80.80;;;1.00;99.90;;;;;;5069452;28;20456;-84
2021/12/10 01:33:17;;;;;;;153.23;86.68;;;1.00;99.90;;;;;;5070936;28;20402;-82
2021/12/10 01:35:52;;;;;;;150.35;86.47;;;1.00;99.90;;;;;;5070841;28;20503;-81
2021/12/10 01:38:18;;;;;;;140.00;81.70;;;1.10;99.90;;;;;;5065207;28;20396;-82
2021/12/10 01:40:48;;;;;;;145.88;85.22;;;1.10;99.90;;;;;;5049875;28;20904;-83
2021/12/10 01:43:22;;;;;;;139.85;83.35;;;1.10;99.90;;;;;;5051043;28;20506;-82
2021/12/10 01:45:52;;;;;;;136.40;80.97;;;1.10;99.90;;;;;;5050418;28;20836;-83
2021/12/10 01:48:26;;;;;;;134.48;81.28;;;1.10;99.90;;;;;;5050810;28;20398;-84
2021/12/10 01:50:53;;;;;;;138.27;83.10;;;1.20;99.90;;;;;;5049547;28;20396;-82
2021/12/10 01:53:24;;;;;;;130.45;78.90;;;1.20;99.90;;;;;;5060687;28;20397;-82
2021/12/10 01:55:53;;;;;;;140.10;82.17;;;1.20;99.90;;;;;;5057681;28;20389;-82
2021/12/10 01:58:22;;;;;;;139.77;82.03;;;1.20;99.90;;;;;;5063932;28;20832;-84
2021/12/10 02:01:04;;;;;;;131.70;78.50;;;1.10;99.90;;;;;;5053932;28;20741;-84
2021/12/10 02:03:30;;;;;;;140.03;82.47;;;1.10;99.90;;;;;;5051327;28;20425;-84
2021/12/10 02:05:56;;;;;;;128.00;77.87;;;1.10;99.90;;;;;;5049239;28;21179;-81
2021/12/10 02:08:22;;;;;;;138.80;81.57;;;1.10;99.90;;;;;;5059474;28;20442;-84
2021/12/10 02:10:48;;;;;;;124.82;75.63;;;1.20;99.90;;;;;;5049980;28;20423;-84
2021/12/10 02:13:13;;;;;;;131.20;79.05;;;1.20;99.90;;;;;;5060372;28;20471;-84
2021/12/10 02:15:40;;;;;;;128.93;77.30;;;1.20;99.90;;;;;;5048937;28;20782;-82
2021/12/10 02:18:07;;;;;;;125.57;76.55;;;1.20;99.90;;;;;;5065280;28;20388;-83
2021/12/10 02:20:43;;;;;;;134.15;81.32;;;1.30;99.90;;;;;;5070042;28;20381;-82
2021/12/10 02:23:09;;;;;;;134.65;81.05;;;1.30;99.90;;;;;;5068215;28;20418;-83
2021/12/10 02:25:38;;;;;;;135.63;82.15;;;1.30;99.90;;;;;;5069856;28;20510;-81
2021/12/10 02:28:08;;;;;;;135.30;78.28;;;1.40;99.90;;;;;;5068851;28;20478;-83
2021/12/10 02:30:34;;;;;;;141.48;84.22;;;1.30;99.90;;;;;;5052165;28;20390;-84
2021/12/10 02:33:00;;;;;;;131.93;81.32;;;1.30;99.90;;;;;;5048690;28;20384;-83
2021/12/10 02:35:27;;;;;;;132.60;79.68;;;1.20;99.90;;;;;;5050117;28;20372;-83
2021/12/10 02:37:54;;;;;;;133.20;79.20;;;1.20;99.90;;;;;;5048647;28;20487;-84
2021/12/10 02:40:21;;;;;;;137.27;81.53;;;1.20;99.90;;;;;;5049829;28;20379;-83
2021/12/10 02:42:50;;;;;;;131.63;78.40;;;1.20;99.90;;;;;;5050097;28;20455;-83
2021/12/10 02:45:17;;;;;;;134.80;80.70;;;1.20;99.90;;;;;;5051625;28;20399;-83
2021/12/10 02:47:45;;;;;;;146.85;84.90;;;1.30;99.90;;;;;;5066749;28;20380;-82
2021/12/10 02:50:14;;;;;;;138.50;81.60;;;1.30;99.90;;;;;;5048237;28;20482;-83
2021/12/10 02:52:39;;;;;;;140.23;83.75;;;1.20;99.90;;;;;;5066982;28;20491;-82
2021/12/10 02:55:10;;;;;;;149.80;86.03;;;1.10;99.90;;;;;;5063562;28;20484;-83
2021/12/10 02:57:40;;;;;;;137.83;82.00;;;1.00;99.90;;;;;;5060603;28;20565;-82
2021/12/10 03:00:10;;;;;;;141.50;82.82;;;1.00;99.90;;;;;;5069671;28;20390;-83
2021/12/10 03:02:35;;;;;;;130.32;78.53;;;1.10;99.90;;;;;;5047811;28;20390;-84
2021/12/10 03:05:03;;;;;;;139.80;82.93;;;1.10;99.90;;;;;;5047959;28;20419;-82
2021/12/10 03:07:30;;;;;;;139.50;83.38;;;1.10;99.90;;;;;;5047885;28;20392;-84
2021/12/10 03:09:56;;;;;;;132.10;78.60;;;1.10;99.90;;;;;;5048167;28;20402;-81
2021/12/10 03:12:22;;;;;;;145.55;84.57;;;1.10;99.90;;;;;;5064112;28;20394;-82
2021/12/10 03:14:53;;;;;;;142.15;81.97;;;1.00;99.90;;;;;;5067470;28;20378;-83
2021/12/10 03:17:26;;;;;;;142.03;83.47;;;1.00;99.90;;;;;;5068555;28;20386;-84
2021/12/10 03:19:53;;;;;;;136.82;82.05;;;1.00;99.90;;;;;;5068734;28;20451;-83
2021/12/10 03:22:18;;;;;;;138.00;82.35;;;1.00;99.90;;;;;;5052543;28;20387;-84
2021/12/10 03:24:44;;;;;;;135.35;80.00;;;1.10;99.90;;;;;;5058857;28;20922;-83
2021/12/10 03:27:11;;;;;;;142.68;83.00;;;1.10;99.90;;;;;;5058899;28;20441;-82
2021/12/10 03:29:40;;;;;;;135.57;79.93;;;1.10;99.90;;;;;;5048837;28;20801;-84
2021/12/10 03:32:10;;;;;;;137.95;81.88;;;1.10;99.90;;;;;;5062553;28;20394;-83
2021/12/10 03:34:36;;;;;;;143.07;82.00;;;1.10;99.90;;;;;;5068443;28;20390;-83
2021/12/10 03:37:03;;;;;;;132.43;79.10;;;1.10;99.90;;;;;;5053707;28;20396;-83
2021/12/10 03:39:30;;;;;;;138.38;81.45;;;1.10;99.90;;;;;;5046916;28;20531;-84
2021/12/10 03:41:58;;;;;;;135.87;81.77;;;1.00;99.90;;;;;;5061087;28;20475;-85
2021/12/10 03:44:24;;;;;;;141.68;82.88;;;1.10;99.90;;;;;;5065729;28;20398;-84
2021/12/10 03:46:53;;;;;;;132.07;78.97;;;1.10;99.90;;;;;;5055751;28;20475;-84
2021/12/10 03:49:20;;;;;;;130.25;78.45;;;1.10;99.90;;;;;;5065766;28;20406;-84
2021/12/10 03:51:46;;;;;;;138.70;82.28;;;1.20;99.90;;;;;;5063044;28;20364;-83
2021/12/10 03:54:12;;;;;;;137.50;81.90;;;1.10;99.90;;;;;;5048469;28;20913;-83
2021/12/10 03:56:39;;;;;;;135.60;79.78;;;1.20;99.90;;;;;;5047277;28;20372;-82
2021/12/10 03:59:10;;;;;;;124.07;76.87;;;1.20;99.90;;;;;;5047521;28;20521;-82
2021/12/10 04:01:38;;;;;;;137.70;80.97;;;1.20;99.90;;;;;;5046623;28;20808;-83
2021/12/10 04:04:07;;;;;;;126.32;79.13;;;1.30;99.90;;;;;;5054639;28;20406;-83
2021/12/10 04:06:34;;;;;;;125.50;77.03;;;1.20;99.90;;;;;;5068581;28;20385;-83
2021/12/10 04:09:00;;;;;;;131.57;80.20;;;1.20;99.90;;;;;;5068566;28;20394;-83
2021/12/10 04:11:27;;;;;;;130.88;78.72;;;1.30;99.90;;;;;;5067010;28;20435;-83
2021/12/10 04:13:55;;;;;;;126.38;76.05;;;1.30;99.90;;;;;;5068382;28;20374;-85
2021/12/10 04:16:23;;;;;;;124.13;77.57;;;1.30;99.90;;;;;;5068413;28;20416;-83
2021/12/10 04:18:52;;;;;;;132.63;80.35;;;1.40;99.90;;;;;;5067031;28;20442;-84
2021/12/10 04:21:18;;;;;;;122.90;74.00;;;1.40;99.90;;;;;;5067050;28;20940;-83
2021/12/10 04:23:44;;;;;;;136.80;81.87;;;1.40;99.90;;;;;;5067949;28;20764;-82
2021/12/10 04:26:13;;;;;;;124.00;77.38;;;1.40;99.90;;;;;;5066988;28;20386;-83
2021/12/10 04:28:39;;;;;;;140.40;82.75;;;1.40;99.90;;;;;;5067290;28;20370;-85
2021/12/10 04:31:05;;;;;;;132.80;79.20;;;1.40;99.90;;;;;;5068248;28;20799;-83
2021/12/10 04:33:31;;;;;;;130.50;78.60;;;1.40;99.90;;;;;;5066897;28;20386;-83
2021/12/10 04:36:00;;;;;;;139.32;82.65;;;1.40;99.90;;;;;;5067098;28;20393;-82
2021/12/10 04:38:28;;;;;;;133.03;80.47;;;1.30;99.90;;;;;;5068118;28;20385;-83
2021/12/10 04:41:00;;;;;;;131.55;77.93;;;1.30;99.90;;;;;;5057558;28;20376;-83
2021/12/10 04:43:26;;;;;;;134.10;80.07;;;1.40;99.90;;;;;;5046894;28;20498;-81
2021/12/10 04:45:54;;;;;;;134.60;80.50;;;1.30;99.90;;;;;;5048373;28;20893;-82
2021/12/10 04:48:20;;;;;;;133.90;81.18;;;1.30;99.90;;;;;;5066568;28;20372;-84
2021/12/10 04:50:45;;;;;;;140.93;84.07;;;1.40;99.90;;;;;;5055446;28;20738;-82
2021/12/10 04:53:12;;;;;;;137.30;83.33;;;1.30;99.90;;;;;;5064625;28;20395;-85
2021/12/10 04:55:38;;;;;;;143.15;84.25;;;1.30;99.90;;;;;;5062028;28;20407;-82
2021/12/10 04:58:04;;;;;;;145.47;86.00;;;1.20;99.90;;;;;;5046662;28;20394;-84
2021/12/10 05:00:37;;;;;;;144.82;82.70;;;1.20;99.90;;;;;;5046524;28;20374;-83
2021/12/10 05:03:05;;;;;;;142.73;84.28;;;1.10;99.90;;;;;;5046811;28;20441;-84
2021/12/10 05:05:31;;;;;;;141.80;84.32;;;1.20;99.90;;;;;;5047706;28;20889;-83
2021/12/10 05:07:57;;;;;;;144.10;86.27;;;1.20;99.90;;;;;;5046817;28;20452;-85
2021/12/10 05:10:23;;;;;;;133.07;79.47;;;1.20;99.90;;;;;;5047518;28;20795;-81
2021/12/10 05:12:49;;;;;;;149.47;86.63;;;1.10;99.90;;;;;;5046491;28;20809;-82
2021/12/10 05:15:22;;;;;;;149.47;84.97;;;1.10;99.90;;;;;;5050152;28;20405;-84
2021/12/10 05:17:51;;;;;;;150.93;87.55;;;1.10;99.90;;;;;;5050261;28;20380;-84
2021/12/10 05:20:23;;;;;;;152.57;89.13;;;1.10;99.90;;;;;;5049936;28;20481;-84
2021/12/10 05:22:49;;;;;;;157.75;89.00;;;1.00;99.90;;;;;;5050092;28;20380;-84
2021/12/10 05:25:16;;;;;;;151.07;86.97;;;1.00;99.90;;;;;;5050941;28;20416;-83
2021/12/10 05:27:42;;;;;;;151.40;86.93;;;1.00;99.90;;;;;;5049929;28;20483;-82
2021/12/10 05:30:12;;;;;;;148.85;88.28;;;1.00;99.90;;;;;;5051394;28;20933;-85
2021/12/10 05:32:37;;;;;;;155.65;89.18;;;1.10;99.90;;;;;;5051597;28;20376;-84
2021/12/10 05:35:05;;;;;;;151.93;86.37;;;1.10;99.90;;;;;;5049893;28;20796;-83
2021/12/10 05:37:31;;;;;;;153.50;88.88;;;1.10;99.90;;;;;;5049607;28;20376;-82
2021/12/10 05:39:56;;;;;;;159.55;90.78;;;1.10;99.90;;;;;;5050613;28;20741;-84
2021/12/10 05:42:22;;;;;;;148.87;86.57;;;1.10;99.90;;;;;;5049581;28;20897;-84
2021/12/10 05:44:48;;;;;;;166.73;92.33;;;1.20;99.90;;;;;;5059647;28;20455;-82
2021/12/10 05:47:14;;;;;;;169.10;94.20;;;1.20;99.90;;;;;;5059404;28;20378;-83
2021/12/10 05:49:39;;;;;;;159.90;89.50;;;1.10;99.90;;;;;;5060611;28;20387;-83
2021/12/10 05:52:06;;;;;;;158.33;91.03;;;1.10;99.90;;;;;;5049435;28;20383;-82
2021/12/10 05:54:33;;;;;;;149.40;85.45;;;1.10;99.90;;;;;;5048959;28;20403;-83
2021/12/10 05:56:59;;;;;;;145.13;84.00;;;1.20;99.90;;;;;;5051138;28;20378;-82
2021/12/10 05:59:24;;;;;;;158.87;88.43;;;1.20;99.90;;;;;;5051184;28;20383;-82
2021/12/10 06:01:50;;;;;;;139.23;82.57;;;1.30;99.90;;;;;;5049163;28;20476;-82
2021/12/10 06:04:21;;;;;;;155.77;89.33;;;1.30;99.90;;;;;;5050428;28;20783;-83
2021/12/10 06:06:47;;;;;;;159.80;90.03;;;1.30;99.90;;;;;;5059839;28;20382;-82
2021/12/10 06:09:13;;;;;;;161.68;89.53;;;1.30;99.90;;;;;;5060395;28;20378;-85
2021/12/10 06:11:38;;;;;;;159.18;89.15;;;1.30;99.90;;;;;;5069324;28;20891;-82
2021/12/10 06:14:06;;;;;;;150.93;87.53;;;1.40;99.90;;;;;;5053463;28;20364;-84
2021/12/10 06:16:32;;;;;;;157.48;88.07;;;1.30;99.90;;;;;;5048925;28;20874;-85
2021/12/10 06:18:58;;;;;;;154.60;89.70;;;1.30;99.90;;;;;;5048100;28;20393;-85
2021/12/10 06:21:24;;;;;;;158.63;89.85;;;1.30;99.90;;;;;;5056157;28;20435;-85
2021/12/10 06:23:50;;;;;;;149.55;86.90;;;1.30;99.90;;;;;;5060287;28;20426;-84
2021/12/10 06:26:15;;;;;;;165.45;91.25;;;1.30;99.90;;;;;;5050020;28;20372;-85
2021/12/10 06:28:44;;;;;;;157.23;91.55;;;1.30;99.90;;;;;;5049064;28;20707;-85
2021/12/10 06:31:11;;;;;;;164.25;91.15;;;1.30;99.90;;;;;;5050000;28;20388;-84
2021/12/10 06:33:36;;;;;;;163.07;91.03;;;1.30;99.90;;;;;;5047938;28;20416;-85
2021/12/10 06:36:05;;;;;;;157.23;89.70;;;1.20;99.90;;;;;;5048375;28;20434;-84
2021/12/10 06:38:32;;;;;;;149.52;86.50;;;1.20;99.90;;;;;;5049698;28;20375;-84
2021/12/10 06:40:58;;;;;;;155.07;88.13;;;1.20;99.90;;;;;;5048578;28;20403;-84
2021/12/10 06:43:23;;;;;;;145.80;85.07;;;1.30;99.90;;;;;;5050013;28;20372;-83
2021/12/10 06:45:51;;;;;;;150.73;85.40;;;1.30;99.90;;;;;;5048230;28;20746;-81
2021/12/10 06:48:18;;;;;;;149.93;85.80;;;1.30;99.90;;;;;;5048316;28;20888;-84
2021/12/10 06:50:48;;;;;;;150.35;87.40;;;1.40;99.90;;;;;;5048043;28;20372;-83
2021/12/10 06:53:15;;;;;;;145.13;85.37;;;1.40;99.90;;;;;;5031788;28;20410;-84
2021/12/10 06:55:40;;;;;;;147.90;86.88;;;1.50;99.90;;;;;;5047594;28;20734;-84
2021/12/10 06:58:07;;;;;;;149.73;88.83;;;1.50;99.90;;;;;;5048130;28;20380;-82
2021/12/10 07:00:47;;;;;;;151.50;85.80;;;1.50;99.90;;;;;;5047503;28;20407;-83
2021/12/10 07:03:16;;;;;;;145.55;85.97;;;1.60;99.90;;;;;;5047997;28;20892;-84
2021/12/10 07:05:43;;;;;;;151.00;87.38;;;1.50;99.90;;;;;;5049105;28;20411;-84
2021/12/10 07:08:09;;;;;;;148.45;86.85;;;1.50;99.90;;;;;;5049139;28;20383;-82
2021/12/10 07:10:36;;;;;;;139.57;83.55;;;1.50;99.90;;;;;;5048882;28;20424;-84
2021/12/10 07:13:06;;;;;;;145.82;86.72;;;1.60;99.90;;;;;;5048937;28;20939;-83
2021/12/10 07:15:33;;;;;;;155.35;88.80;;;1.60;99.90;;;;;;5047502;28;20392;-85
2021/12/10 07:17:58;;;;;;;150.07;86.78;;;1.50;99.90;;;;;;5047962;28;20433;-82
2021/12/10 07:20:25;;;;;;;151.15;88.10;;;1.50;99.90;;;;;;5047628;28;20376;-82
2021/12/10 07:22:51;;;;;;;152.32;89.03;;;1.40;99.90;;;;;;5047482;28;20376;-83
2021/12/10 07:25:18;;;;;;;148.10;87.18;;;1.40;99.90;;;;;;5047239;28;20912;-82
2021/12/10 07:27:44;;;;;;;156.38;90.28;;;1.40;99.90;;;;;;5049232;28;20614;-82
2021/12/10 07:30:11;;;;;;;149.73;88.80;;;1.40;99.90;;;;;;5048489;28;20837;-83
2021/12/10 07:32:37;;;;;;;142.82;86.13;;;1.40;99.90;;;;;;5046243;28;20382;-82
2021/12/10 07:35:08;;;;;;;145.57;86.20;;;1.40;99.90;;;;;;5062133;28;20444;-83
2021/12/10 07:37:35;;;;;;;156.10;88.82;;;1.40;99.90;;;;;;5064737;28;20432;-82
2021/12/10 07:40:01;;;;;;;151.60;88.93;;;1.40;99.90;;;;;;5065462;28;20438;-85
2021/12/10 07:42:27;;;;;;;147.85;87.28;;;1.40;99.90;;;;;;5065258;28;20378;-82
2021/12/10 07:44:55;;;;;;;148.88;87.85;;;1.50;99.90;;;;;;5065571;28;20877;-84
2021/12/10 07:47:23;;;;;;;149.77;87.55;;;1.50;99.90;;;;;;5062917;28;20386;-83
2021/12/10 07:49:49;;;;;;;153.02;90.13;;;1.60;99.90;;;;;;5063166;28;20764;-85
2021/12/10 07:52:21;;;;;;;138.07;84.22;;;1.50;99.90;;;;;;5064209;28;20393;-84
2021/12/10 07:54:48;;;;;;;144.95;88.03;;;1.60;99.90;;;;;;5064904;28;20406;-84
2021/12/10 07:57:16;;;;;;;148.07;88.67;;;1.70;99.90;;;;;;5065177;28;20495;-85
2021/12/10 07:59:42;;;;;;;147.43;88.07;;;1.70;99.90;;;;;;5065300;28;20809;-84
2021/12/10 08:02:08;;;;;;;146.38;87.53;;;1.60;99.90;;;;;;5064316;28;20366;-85
2021/12/10 08:04:34;;;;;;;139.52;85.07;;;1.60;99.90;;;;;;5063246;28;20421;-83
2021/12/10 08:06:59;;;;;;;158.07;96.32;;;1.70;99.90;;;;;;5054785;28;20438;-85
2021/12/10 08:09:25;;;;;;;146.55;90.15;;;1.70;99.90;;;;;;5064284;28;20402;-83
2021/12/10 08:11:51;;;;;;;149.98;93.65;;;1.70;99.90;;;;;;5064874;28;20386;-83
2021/12/10 08:14:17;;;;;;;159.23;96.57;;;1.80;99.90;;;;;;5065419;28;20435;-83
2021/12/10 08:16:43;;;;;;;158.10;93.67;;;1.80;99.90;;;;;;5063039;28;20778;-82
2021/12/10 08:19:10;;;;;;;149.85;92.40;;;1.70;99.90;;;;;;5065253;28;20394;-84
2021/12/10 08:21:36;;;;;;;150.50;90.33;;;1.80;99.90;;;;;;5065067;28;20389;-83
2021/12/10 08:24:02;;;;;;;143.60;87.43;;;1.80;99.90;;;;;;5065066;28;20410;-84
2021/12/10 08:26:28;;;;;;;145.65;88.07;;;1.80;99.90;;;;;;5064996;28;20384;-85
2021/12/10 08:28:55;;;;;;;150.82;88.75;;;1.80;99.90;;;;;;5065166;28;20386;-85
2021/12/10 08:31:21;;;;;;;142.98;87.22;;;1.80;99.90;;;;;;5064906;28;20374;-82
2021/12/10 08:33:49;;;;;;;139.20;87.17;;;1.80;99.90;;;;;;5059418;28;20386;-85
2021/12/10 08:36:18;;;;;;;146.20;87.53;;;1.80;99.90;;;;;;5063050;28;20386;-83
2021/12/10 08:38:44;;;;;;;146.40;89.68;;;1.70;99.90;;;;;;5062872;28;20389;-82
2021/12/10 08:41:17;;;;;;;143.43;87.17;;;1.70;99.90;;;;;;5059314;28;20450;-84
2021/12/10 08:43:43;;;;;;;144.17;87.50;;;1.70;99.90;;;;;;5063510;28;20397;-84
2021/12/10 08:46:10;;;;;;;151.23;90.55;;;1.80;99.90;;;;;;5064959;28;20378;-83
2021/12/10 08:48:36;;;;;;;148.23;89.53;;;1.90;99.90;;;;;;5061311;28;21297;-83
2021/12/10 08:51:08;;;;;;;154.40;93.30;;;1.90;99.90;;;;;;5066079;28;20860;-83
2021/12/10 08:53:34;;;;;;;149.85;89.47;;;1.90;99.90;;;;;;5067270;28;20413;-84
2021/12/10 08:56:00;;;;;;;138.95;86.68;;;1.90;99.90;;;;;;5068912;28;20519;-84
2021/12/10 08:58:26;;;;;;;149.60;89.78;;;2.00;99.90;;;;;;5066627;28;20469;-83
2021/12/10 09:00:57;;;;;;;137.25;84.85;;;1.90;99.90;;;;;;5068167;28;20386;-82
2021/12/10 09:03:23;;;;;;;138.82;85.53;;;1.80;99.90;;;;;;5049962;28;20397;-82
2021/12/10 09:05:49;;;;;;;145.55;87.65;;;1.80;99.90;;;;;;5066379;28;20405;-83
2021/12/10 09:08:15;;;;;;;141.02;87.40;;;2.00;99.90;;;;;;5067614;28;20872;-84
2021/12/10 09:10:44;;;;;;;144.73;87.70;;;2.10;99.90;;;;;;5066531;28;20389;-84
2021/12/10 09:13:14;;;;;;;142.63;87.07;;;2.10;99.90;;;;;;5067582;28;20378;-85
2021/12/10 09:15:50;;;;;;;138.27;84.07;;;2.10;99.90;;;;;;5066682;28;20444;-84
2021/12/10 09:18:17;;;;;;;136.20;84.70;;;2.20;99.90;;;;;;5065987;28;20405;-84
2021/12/10 09:20:48;;;;;;;132.43;83.80;;;2.30;99.90;;;;;;5067655;28;20875;-84
2021/12/10 09:23:18;;;;;;;141.25;87.80;;;2.40;99.90;;;;;;5066590;28;20480;-84
2021/12/10 09:25:44;;;;;;;137.27;84.88;;;2.50;99.90;;;;;;5067999;28;20409;-85
2021/12/10 09:28:10;;;;;;;140.35;84.22;;;2.50;99.90;;;;;;5065109;28;20390;-83
2021/12/10 09:30:38;;;;;;;137.68;84.07;;;2.60;99.90;;;;;;5068139;28;20382;-84
2021/12/10 09:33:05;;;;;;;140.60;86.30;;;2.60;99.90;;;;;;5066334;28;20385;-83
2021/12/10 09:35:33;;;;;;;138.63;84.55;;;2.60;99.90;;;;;;5068012;28;20413;-81
2021/12/10 09:37:59;;;;;;;138.10;83.28;;;2.60;99.90;;;;;;5065757;28;20386;-82
2021/12/10 09:40:34;;;;;;;142.95;86.18;;;2.70;99.90;;;;;;5068363;28;20463;-82
2021/12/10 09:43:01;;;;;;;137.63;84.32;;;2.70;99.90;;;;;;5043628;28;20406;-82
2021/12/10 09:45:30;;;;;;;140.63;86.43;;;2.80;99.90;;;;;;5061618;28;20422;-84
2021/12/10 09:47:56;;;;;;;133.97;82.80;;;2.80;99.90;;;;;;5051501;28;20442;-82
2021/12/10 09:50:26;;;;;;;140.15;85.45;;;2.80;99.90;;;;;;5050495;28;20715;-85
2021/12/10 09:52:54;;;;;;;142.10;86.60;;;2.80;99.90;;;;;;5050608;28;20738;-84
2021/12/10 09:55:20;;;;;;;139.57;85.82;;;2.80;99.90;;;;;;5048649;28;20975;-84
2021/12/10 09:57:49;;;;;;;148.43;87.68;;;2.90;99.90;;;;;;5049261;28;20387;-82
2021/12/10 10:00:31;;;;;;;152.23;90.53;;;2.80;99.90;;;;;;5050702;28;20894;-82
2021/12/10 10:02:57;;;;;;;155.73;91.15;;;2.60;99.90;;;;;;5049544;28;20379;-82
2021/12/10 10:05:27;;;;;;;143.05;86.20;;;2.50;99.90;;;;;;5050226;28;20408;-83
2021/12/10 10:07:55;;;;;;;150.05;89.63;;;2.60;99.90;;;;;;5050553;28;20442;-83
2021/12/10 10:10:23;;;;;;;146.48;86.38;;;2.70;99.90;;;;;;5048998;28;20874;-84
2021/12/10 10:12:51;;;;;;;133.00;82.03;;;2.80;99.90;;;;;;5066880;28;20406;-83
2021/12/10 10:15:23;;;;;;;142.50;85.85;;;2.90;99.90;;;;;;5055495;28;20393;-84
2021/12/10 10:17:49;;;;;;;133.53;81.57;;;2.90;99.90;;;;;;5068386;28;20386;-83
2021/12/10 10:20:17;;;;;;;140.20;84.20;;;3.00;99.90;;;;;;5069647;28;20408;-84
2021/12/10 10:22:44;;;;;;;139.90;84.50;;;3.00;99.90;;;;;;5068486;28;20405;-84
2021/12/10 10:25:11;;;;;;;131.18;79.38;;;3.00;99.90;;;;;;5069737;28;20406;-83
2021/12/10 10:27:40;;;;;;;130.05;80.75;;;3.10;99.90;;;;;;5056367;28;20400;-83
2021/12/10 10:30:16;;;;;;;135.25;84.10;;;3.10;99.90;;;;;;5049944;28;20423;-84
2021/12/10 10:32:45;;;;;;;142.10;84.03;;;3.10;99.90;;;;;;5049040;28;20394;-84
2021/12/10 10:35:17;;;;;;;146.70;84.93;;;3.10;99.90;;;;;;5046146;28;20457;-84
2021/12/10 10:37:44;;;;;;;140.55;82.88;;;3.10;99.90;;;;;;5047965;28;20466;-84
2021/12/10 10:40:14;;;;;;;135.40;80.47;;;3.10;99.90;;;;;;5048286;28;20387;-85
2021/12/10 10:42:39;;;;;;;133.50;80.07;;;3.00;99.90;;;;;;5047138;28;20392;-82
2021/12/10 10:45:09;;;;;;;138.80;81.17;;;3.10;99.90;;;;;;5049444;28;20399;-81
2021/12/10 10:47:34;;;;;;;141.98;82.00;;;3.00;99.90;;;;;;5048110;28;20881;-81
2021/12/10 10:50:22;;;;;;;137.00;80.95;;;3.00;99.90;;;;;;5047877;28;20438;-82
2021/12/10 10:52:52;;;;;;;149.52;84.38;;;2.90;99.90;;;;;;5047921;28;20399;-82
2021/12/10 10:55:20;;;;;;;143.70;83.88;;;2.90;99.90;;;;;;5048883;28;20498;-82
2021/12/10 10:57:54;;;;;;;148.20;83.40;;;2.90;99.90;;;;;;5047659;28;20376;-82
2021/12/10 11:00:29;;;;;;;137.13;79.03;;;2.80;99.90;;;;;;5047403;28;20387;-81
2021/12/10 11:03:03;;;;;;;135.75;77.65;;;2.90;99.90;;;;;;5048866;28;20388;-80
2021/12/10 11:05:30;;;;;;;131.60;76.85;;;3.00;99.90;;;;;;5047398;28;20418;-82
2021/12/10 11:08:01;;;;;;;131.48;75.50;;;3.00;99.90;;;;;;5048434;28;20481;-82
2021/12/10 11:10:34;;;;;;;141.95;81.75;;;3.20;99.90;;;;;;5048231;28;20463;-84
2021/12/10 11:13:11;;;;;;;140.43;79.63;;;3.20;99.90;;;;;;5046237;28;20490;-80
2021/12/10 11:15:38;;;;;;;136.43;78.97;;;3.20;99.90;;;;;;5041877;28;20399;-82
2021/12/10 11:18:04;;;;;;;135.82;78.80;;;3.30;99.90;;;;;;5049506;28;20375;-84
2021/12/10 11:20:42;;;;;;;137.37;78.07;;;3.30;99.90;;;;;;5048779;28;20719;-83
2021/12/10 11:23:15;;;;;;;131.50;75.65;;;3.20;99.90;;;;;;5065847;28;20392;-83
2021/12/10 11:25:55;;;;;;;133.38;76.68;;;3.30;99.90;;;;;;5067163;28;20896;-83
2021/12/10 11:28:32;;;;;;;125.60;73.82;;;3.50;99.90;;;;;;5067349;28;20544;-83
2021/12/10 11:31:13;;;;;;;133.70;76.32;;;3.50;99.90;;;;;;5067139;28;20872;-84
2021/12/10 11:33:45;;;;;;;135.40;77.20;;;3.50;99.90;;;;;;5063788;28;20878;-84
2021/12/10 11:36:18;;;;;;;132.60;75.63;;;3.50;99.90;;;;;;5047651;28;20474;-87
2021/12/10 11:38:46;;;;;;;134.57;76.97;;;3.40;99.90;;;;;;5047391;28;20387;-82
2021/12/10 11:41:18;;;;;;;137.60;77.28;;;3.30;99.90;;;;;;5046771;28;20403;-82
2021/12/10 11:43:54;;;;;;;136.25;78.22;;;3.00;99.90;;;;;;5043092;28;20407;-82
2021/12/10 11:49:33;;;;;;;126.18;73.38;;;3.30;99.90;;;;;;5052114;28;20425;-82
2021/12/10 11:52:02;;;;;;;128.02;74.22;;;3.50;99.90;;;;;;5064015;28;20449;-80
2021/12/10 11:54:36;;;;;;;121.88;72.03;;;3.50;99.90;;;;;;5064535;28;20413;-82
2021/12/10 11:57:17;;;;;;;123.00;71.80;;;3.50;99.90;;;;;;5064086;28;20381;-81
2021/12/10 11:59:50;;;;;;;123.97;72.60;;;3.60;99.90;;;;;;5065678;28;20441;-82
2021/12/10 12:02:30;;;;;;;120.10;70.18;;;3.50;99.90;;;;;;5064192;28;20867;-83
2021/12/10 12:04:59;;;;;;;126.35;72.95;;;3.40;99.90;;;;;;5063558;28;20467;-82
2021/12/10 12:07:30;;;;;;;125.63;72.63;;;3.50;99.90;;;;;;5062663;28;20456;-83
2021/12/10 12:10:22;;;;;;;127.22;74.28;;;3.40;99.90;;;;;;5063308;28;20429;-82
2021/12/10 12:13:11;;;;;;;122.03;71.10;;;3.30;99.90;;;;;;5057571;28;20408;-82
2021/12/10 12:15:40;;;;;;;125.13;71.70;;;3.30;99.90;;;;;;5064593;28;20399;-84
2021/12/10 12:18:08;;;;;;;129.20;72.77;;;3.30;99.90;;;;;;5064354;28;20363;-81
2021/12/10 12:20:49;;;;;;;119.65;69.43;;;3.40;99.90;;;;;;5065509;28;20374;-83
2021/12/10 12:26:15;;;;;;;114.45;67.82;;;3.50;99.90;;;;;;5068701;28;20499;-83
2021/12/10 12:28:54;;;;;;;108.60;64.72;;;3.60;99.90;;;;;;5062850;28;20397;-82
2021/12/10 12:31:27;;;;;;;108.38;65.43;;;3.70;99.90;;;;;;5069477;28;20493;-83
2021/12/10 12:34:17;;;;;;;96.82;61.83;;;3.60;99.90;;;;;;5068944;28;20505;-82
2021/12/10 12:36:55;;;;;;;100.22;61.38;;;3.60;99.90;;;;;;5068808;28;20431;-83
2021/12/10 12:39:44;;;;;;;97.77;60.83;;;3.60;99.90;;;;;;5068834;28;20740;-82
2021/12/10 12:42:35;;;;;;;97.90;61.47;;;3.50;99.90;;;;;;5068900;28;20409;-81
2021/12/10 12:45:09;;;;;;;97.50;61.08;;;3.60;99.90;;;;;;5064900;28;20417;-82
2021/12/10 12:47:48;;;;;;;102.20;63.83;;;3.60;99.90;;;;;;5064635;28;20384;-82
2021/12/10 12:50:18;;;;;;;104.32;62.53;;;3.60;99.90;;;;;;5064178;28;20374;-83
2021/12/10 12:52:53;;;;;;;104.80;63.15;;;3.30;99.90;;;;;;5068067;28;20382;-83